sensor_id;sensor_type;location;lat;lon;timestamp;P1;durP1;ratioP1;P2;durP2;ratioP2
52868;SDS011;39100;53.480;6.158;2024-03-02T00:00:23;1.92;;;0.90;;
52868;SDS011;39100;53.480;6.158;2024-03-02T00:02:50;1.92;;;1.00;;
52868;SDS011;39100;53.480;6.158;2024-03-02T00:05:17;2.42;;;1.38;;
52868;SDS011;39100;53.480;6.158;2024-03-02T00:07:54;1.95;;;1.73;;
52868;SDS011;39100;53.480;6.158;2024-03-02T00:10:22;2.67;;;0.95;;
52868;SDS011;39100;53.480;6.158;2024-03-02T00:13:07;1.42;;;0.80;;
52868;SDS011;39100;53.480;6.158;2024-03-02T00:15:40;2.05;;;1.05;;
52868;SDS011;39100;53.480;6.158;2024-03-02T00:18:12;1.75;;;1.15;;
52868;SDS011;39100;53.480;6.158;2024-03-02T00:20:39;2.40;;;1.35;;
52868;SDS011;39100;53.480;6.158;2024-03-02T00:23:06;4.53;;;0.85;;
52868;SDS011;39100;53.480;6.158;2024-03-02T00:25:38;1.58;;;1.25;;
52868;SDS011;39100;53.480;6.158;2024-03-02T00:28:09;7.07;;;2.80;;
52868;SDS011;39100;53.480;6.158;2024-03-02T00:33:33;14.95;;;6.03;;
52868;SDS011;39100;53.480;6.158;2024-03-02T00:36:01;7.63;;;4.13;;
52868;SDS011;39100;53.480;6.158;2024-03-02T00:38:28;9.48;;;4.00;;
52868;SDS011;39100;53.480;6.158;2024-03-02T00:40:55;8.32;;;4.60;;
52868;SDS011;39100;53.480;6.158;2024-03-02T00:43:35;10.35;;;4.32;;
52868;SDS011;39100;53.480;6.158;2024-03-02T00:46:15;3.00;;;1.80;;
52868;SDS011;39100;53.480;6.158;2024-03-02T00:49:04;3.00;;;1.73;;
52868;SDS011;39100;53.480;6.158;2024-03-02T00:51:30;2.35;;;1.35;;
52868;SDS011;39100;53.480;6.158;2024-03-02T00:54:01;2.40;;;1.35;;
52868;SDS011;39100;53.480;6.158;2024-03-02T00:58:55;1.92;;;1.10;;
52868;SDS011;39100;53.480;6.158;2024-03-02T01:01:20;3.03;;;1.58;;
52868;SDS011;39100;53.480;6.158;2024-03-02T01:03:46;2.78;;;1.90;;
52868;SDS011;39100;53.480;6.158;2024-03-02T01:06:12;2.30;;;1.65;;
52868;SDS011;39100;53.480;6.158;2024-03-02T01:08:38;2.25;;;1.45;;
52868;SDS011;39100;53.480;6.158;2024-03-02T01:11:04;3.20;;;1.70;;
52868;SDS011;39100;53.480;6.158;2024-03-02T01:13:30;2.15;;;1.55;;
52868;SDS011;39100;53.480;6.158;2024-03-02T01:15:56;4.13;;;2.13;;
52868;SDS011;39100;53.480;6.158;2024-03-02T01:18:23;2.30;;;1.48;;
52868;SDS011;39100;53.480;6.158;2024-03-02T01:20:49;2.42;;;1.40;;
52868;SDS011;39100;53.480;6.158;2024-03-02T01:23:20;3.10;;;1.47;;
52868;SDS011;39100;53.480;6.158;2024-03-02T01:25:48;2.97;;;1.50;;
52868;SDS011;39100;53.480;6.158;2024-03-02T01:28:15;1.63;;;1.17;;
52868;SDS011;39100;53.480;6.158;2024-03-02T01:30:40;1.58;;;1.20;;
52868;SDS011;39100;53.480;6.158;2024-03-02T01:33:06;1.88;;;1.20;;
52868;SDS011;39100;53.480;6.158;2024-03-02T01:35:32;1.80;;;1.23;;
52868;SDS011;39100;53.480;6.158;2024-03-02T01:37:58;2.55;;;1.00;;
52868;SDS011;39100;53.480;6.158;2024-03-02T01:40:23;1.15;;;1.05;;
52868;SDS011;39100;53.480;6.158;2024-03-02T01:42:51;3.13;;;1.63;;
52868;SDS011;39100;53.480;6.158;2024-03-02T01:45:19;3.28;;;1.00;;
52868;SDS011;39100;53.480;6.158;2024-03-02T01:47:44;2.67;;;1.50;;
52868;SDS011;39100;53.480;6.158;2024-03-02T01:50:13;2.33;;;0.90;;
52868;SDS011;39100;53.480;6.158;2024-03-02T01:52:39;3.65;;;1.08;;
52868;SDS011;39100;53.480;6.158;2024-03-02T01:55:05;1.60;;;0.80;;
52868;SDS011;39100;53.480;6.158;2024-03-02T01:57:32;3.20;;;1.38;;
52868;SDS011;39100;53.480;6.158;2024-03-02T01:59:58;5.00;;;1.48;;
52868;SDS011;39100;53.480;6.158;2024-03-02T02:02:25;1.48;;;1.02;;
52868;SDS011;39100;53.480;6.158;2024-03-02T02:04:50;2.17;;;1.30;;
52868;SDS011;39100;53.480;6.158;2024-03-02T02:07:16;2.08;;;1.38;;
52868;SDS011;39100;53.480;6.158;2024-03-02T02:09:42;3.65;;;0.90;;
52868;SDS011;39100;53.480;6.158;2024-03-02T02:12:11;1.63;;;0.95;;
52868;SDS011;39100;53.480;6.158;2024-03-02T02:14:37;2.25;;;1.40;;
52868;SDS011;39100;53.480;6.158;2024-03-02T02:17:04;4.85;;;1.40;;
52868;SDS011;39100;53.480;6.158;2024-03-02T02:19:30;2.75;;;1.40;;
52868;SDS011;39100;53.480;6.158;2024-03-02T02:21:56;7.18;;;1.85;;
52868;SDS011;39100;53.480;6.158;2024-03-02T02:24:21;1.63;;;1.52;;
52868;SDS011;39100;53.480;6.158;2024-03-02T02:26:47;2.08;;;1.23;;
52868;SDS011;39100;53.480;6.158;2024-03-02T02:29:12;2.75;;;1.25;;
52868;SDS011;39100;53.480;6.158;2024-03-02T02:31:38;2.67;;;1.15;;
52868;SDS011;39100;53.480;6.158;2024-03-02T02:34:04;2.58;;;1.30;;
52868;SDS011;39100;53.480;6.158;2024-03-02T02:36:31;2.05;;;1.15;;
52868;SDS011;39100;53.480;6.158;2024-03-02T02:38:57;1.17;;;0.90;;
52868;SDS011;39100;53.480;6.158;2024-03-02T02:41:24;1.85;;;0.98;;
52868;SDS011;39100;53.480;6.158;2024-03-02T02:43:49;1.90;;;1.00;;
52868;SDS011;39100;53.480;6.158;2024-03-02T02:46:15;1.92;;;1.23;;
52868;SDS011;39100;53.480;6.158;2024-03-02T02:48:40;2.22;;;1.15;;
52868;SDS011;39100;53.480;6.158;2024-03-02T02:51:06;2.65;;;1.40;;
52868;SDS011;39100;53.480;6.158;2024-03-02T02:53:31;2.03;;;0.90;;
52868;SDS011;39100;53.480;6.158;2024-03-02T02:55:57;1.80;;;0.82;;
52868;SDS011;39100;53.480;6.158;2024-03-02T02:58:22;1.50;;;1.10;;
52868;SDS011;39100;53.480;6.158;2024-03-02T03:00:49;2.08;;;1.10;;
52868;SDS011;39100;53.480;6.158;2024-03-02T03:03:15;4.47;;;1.08;;
52868;SDS011;39100;53.480;6.158;2024-03-02T03:05:40;1.17;;;0.82;;
52868;SDS011;39100;53.480;6.158;2024-03-02T03:08:06;2.13;;;0.98;;
52868;SDS011;39100;53.480;6.158;2024-03-02T03:10:31;1.95;;;1.23;;
52868;SDS011;39100;53.480;6.158;2024-03-02T03:12:58;1.83;;;0.98;;
52868;SDS011;39100;53.480;6.158;2024-03-02T03:15:23;1.23;;;0.95;;
52868;SDS011;39100;53.480;6.158;2024-03-02T03:17:49;3.60;;;1.30;;
52868;SDS011;39100;53.480;6.158;2024-03-02T03:20:15;1.33;;;1.23;;
52868;SDS011;39100;53.480;6.158;2024-03-02T03:22:41;2.45;;;0.80;;
52868;SDS011;39100;53.480;6.158;2024-03-02T03:25:07;1.35;;;1.00;;
52868;SDS011;39100;53.480;6.158;2024-03-02T03:27:36;1.65;;;0.85;;
52868;SDS011;39100;53.480;6.158;2024-03-02T03:30:01;1.83;;;1.20;;
52868;SDS011;39100;53.480;6.158;2024-03-02T03:32:28;1.48;;;0.90;;
52868;SDS011;39100;53.480;6.158;2024-03-02T03:34:53;0.80;;;0.80;;
52868;SDS011;39100;53.480;6.158;2024-03-02T03:37:19;2.72;;;1.00;;
52868;SDS011;39100;53.480;6.158;2024-03-02T03:39:44;1.67;;;1.00;;
52868;SDS011;39100;53.480;6.158;2024-03-02T03:42:10;3.72;;;1.40;;
52868;SDS011;39100;53.480;6.158;2024-03-02T03:44:36;1.55;;;0.95;;
52868;SDS011;39100;53.480;6.158;2024-03-02T03:47:01;1.52;;;1.17;;
52868;SDS011;39100;53.480;6.158;2024-03-02T03:49:27;1.33;;;0.90;;
52868;SDS011;39100;53.480;6.158;2024-03-02T03:51:53;1.40;;;0.93;;
52868;SDS011;39100;53.480;6.158;2024-03-02T03:54:19;1.45;;;0.70;;
52868;SDS011;39100;53.480;6.158;2024-03-02T03:56:44;2.00;;;1.02;;
52868;SDS011;39100;53.480;6.158;2024-03-02T03:59:10;2.65;;;1.10;;
52868;SDS011;39100;53.480;6.158;2024-03-02T04:01:35;1.75;;;1.20;;
52868;SDS011;39100;53.480;6.158;2024-03-02T04:04:01;1.27;;;0.75;;
52868;SDS011;39100;53.480;6.158;2024-03-02T04:06:28;1.80;;;1.02;;
52868;SDS011;39100;53.480;6.158;2024-03-02T04:08:54;3.03;;;0.82;;
52868;SDS011;39100;53.480;6.158;2024-03-02T04:11:20;2.75;;;0.90;;
52868;SDS011;39100;53.480;6.158;2024-03-02T04:13:46;2.55;;;1.55;;
52868;SDS011;39100;53.480;6.158;2024-03-02T04:16:11;2.55;;;1.55;;
52868;SDS011;39100;53.480;6.158;2024-03-02T04:18:37;2.42;;;0.80;;
52868;SDS011;39100;53.480;6.158;2024-03-02T04:21:04;1.63;;;0.95;;
52868;SDS011;39100;53.480;6.158;2024-03-02T04:23:30;2.63;;;1.40;;
52868;SDS011;39100;53.480;6.158;2024-03-02T04:25:55;2.08;;;0.98;;
52868;SDS011;39100;53.480;6.158;2024-03-02T04:28:21;2.08;;;1.15;;
52868;SDS011;39100;53.480;6.158;2024-03-02T04:30:47;2.25;;;1.20;;
52868;SDS011;39100;53.480;6.158;2024-03-02T04:33:12;3.15;;;1.17;;
52868;SDS011;39100;53.480;6.158;2024-03-02T04:35:38;1.40;;;0.95;;
52868;SDS011;39100;53.480;6.158;2024-03-02T04:38:03;2.03;;;1.25;;
52868;SDS011;39100;53.480;6.158;2024-03-02T04:40:29;1.42;;;1.10;;
52868;SDS011;39100;53.480;6.158;2024-03-02T04:42:55;2.17;;;1.10;;
52868;SDS011;39100;53.480;6.158;2024-03-02T04:45:20;1.63;;;0.88;;
52868;SDS011;39100;53.480;6.158;2024-03-02T04:47:46;1.45;;;0.85;;
52868;SDS011;39100;53.480;6.158;2024-03-02T04:50:12;2.10;;;1.40;;
52868;SDS011;39100;53.480;6.158;2024-03-02T04:52:37;1.33;;;0.93;;
52868;SDS011;39100;53.480;6.158;2024-03-02T04:55:03;3.08;;;1.13;;
52868;SDS011;39100;53.480;6.158;2024-03-02T04:57:41;1.27;;;1.00;;
52868;SDS011;39100;53.480;6.158;2024-03-02T05:00:07;2.33;;;1.00;;
52868;SDS011;39100;53.480;6.158;2024-03-02T05:02:34;4.72;;;1.33;;
52868;SDS011;39100;53.480;6.158;2024-03-02T05:04:59;0.50;;;0.50;;
52868;SDS011;39100;53.480;6.158;2024-03-02T05:07:25;1.35;;;1.00;;
52868;SDS011;39100;53.480;6.158;2024-03-02T05:09:51;1.50;;;0.95;;
52868;SDS011;39100;53.480;6.158;2024-03-02T05:12:17;1.85;;;0.80;;
52868;SDS011;39100;53.480;6.158;2024-03-02T05:15:05;0.90;;;0.80;;
52868;SDS011;39100;53.480;6.158;2024-03-02T05:17:32;1.33;;;0.88;;
52868;SDS011;39100;53.480;6.158;2024-03-02T05:19:58;2.03;;;0.80;;
52868;SDS011;39100;53.480;6.158;2024-03-02T05:22:24;1.08;;;0.50;;
52868;SDS011;39100;53.480;6.158;2024-03-02T05:24:49;1.25;;;0.88;;
52868;SDS011;39100;53.480;6.158;2024-03-02T05:27:15;1.40;;;0.98;;
52868;SDS011;39100;53.480;6.158;2024-03-02T05:29:40;1.10;;;0.95;;
52868;SDS011;39100;53.480;6.158;2024-03-02T05:32:06;2.25;;;0.93;;
52868;SDS011;39100;53.480;6.158;2024-03-02T05:34:32;1.15;;;0.80;;
52868;SDS011;39100;53.480;6.158;2024-03-02T05:37:00;1.40;;;0.88;;
52868;SDS011;39100;53.480;6.158;2024-03-02T05:39:26;0.77;;;0.63;;
52868;SDS011;39100;53.480;6.158;2024-03-02T05:41:51;1.85;;;0.80;;
52868;SDS011;39100;53.480;6.158;2024-03-02T05:44:17;1.63;;;0.77;;
52868;SDS011;39100;53.480;6.158;2024-03-02T05:46:43;3.03;;;0.77;;
52868;SDS011;39100;53.480;6.158;2024-03-02T05:49:09;1.90;;;0.80;;
52868;SDS011;39100;53.480;6.158;2024-03-02T05:51:35;2.25;;;0.85;;
52868;SDS011;39100;53.480;6.158;2024-03-02T05:54:01;0.70;;;0.50;;
52868;SDS011;39100;53.480;6.158;2024-03-02T05:56:26;1.20;;;0.80;;
52868;SDS011;39100;53.480;6.158;2024-03-02T05:58:52;1.00;;;0.60;;
52868;SDS011;39100;53.480;6.158;2024-03-02T06:01:36;0.47;;;0.30;;
52868;SDS011;39100;53.480;6.158;2024-03-02T06:04:02;0.93;;;0.40;;
52868;SDS011;39100;53.480;6.158;2024-03-02T06:06:27;0.77;;;0.40;;
52868;SDS011;39100;53.480;6.158;2024-03-02T06:08:53;0.93;;;0.50;;
52868;SDS011;39100;53.480;6.158;2024-03-02T06:11:19;1.02;;;0.40;;
52868;SDS011;39100;53.480;6.158;2024-03-02T06:13:45;1.00;;;0.45;;
52868;SDS011;39100;53.480;6.158;2024-03-02T06:16:11;0.47;;;0.43;;
52868;SDS011;39100;53.480;6.158;2024-03-02T06:18:36;1.85;;;0.20;;
52868;SDS011;39100;53.480;6.158;2024-03-02T06:21:02;0.50;;;0.10;;
52868;SDS011;39100;53.480;6.158;2024-03-02T06:23:28;0.30;;;0.15;;
52868;SDS011;39100;53.480;6.158;2024-03-02T06:25:54;0.10;;;0.10;;
52868;SDS011;39100;53.480;6.158;2024-03-02T06:28:19;0.10;;;0.03;;
52868;SDS011;39100;53.480;6.158;2024-03-02T06:30:45;0.10;;;0.05;;
52868;SDS011;39100;53.480;6.158;2024-03-02T06:33:11;0.85;;;0.00;;
52868;SDS011;39100;53.480;6.158;2024-03-02T06:35:37;0.00;;;0.00;;
52868;SDS011;39100;53.480;6.158;2024-03-02T06:38:03;0.63;;;0.08;;
52868;SDS011;39100;53.480;6.158;2024-03-02T06:40:28;0.60;;;0.10;;
52868;SDS011;39100;53.480;6.158;2024-03-02T06:42:54;0.30;;;0.10;;
52868;SDS011;39100;53.480;6.158;2024-03-02T06:45:20;0.30;;;0.25;;
52868;SDS011;39100;53.480;6.158;2024-03-02T06:47:45;0.15;;;0.10;;
52868;SDS011;39100;53.480;6.158;2024-03-02T06:50:11;0.65;;;0.20;;
52868;SDS011;39100;53.480;6.158;2024-03-02T06:52:36;0.20;;;0.10;;
52868;SDS011;39100;53.480;6.158;2024-03-02T06:55:02;0.10;;;0.10;;
52868;SDS011;39100;53.480;6.158;2024-03-02T06:57:29;0.05;;;0.05;;
52868;SDS011;39100;53.480;6.158;2024-03-02T06:59:55;0.20;;;0.05;;
52868;SDS011;39100;53.480;6.158;2024-03-02T07:02:23;0.20;;;0.03;;
52868;SDS011;39100;53.480;6.158;2024-03-02T07:04:54;0.25;;;0.10;;
52868;SDS011;39100;53.480;6.158;2024-03-02T07:07:20;0.10;;;0.00;;
52868;SDS011;39100;53.480;6.158;2024-03-02T07:09:46;1.33;;;0.10;;
52868;SDS011;39100;53.480;6.158;2024-03-02T07:12:12;0.10;;;0.10;;
52868;SDS011;39100;53.480;6.158;2024-03-02T07:14:38;0.10;;;0.10;;
52868;SDS011;39100;53.480;6.158;2024-03-02T07:17:33;0.38;;;0.10;;
52868;SDS011;39100;53.480;6.158;2024-03-02T07:19:59;0.10;;;0.10;;
52868;SDS011;39100;53.480;6.158;2024-03-02T07:22:24;0.17;;;0.00;;
52868;SDS011;39100;53.480;6.158;2024-03-02T07:24:50;0.40;;;0.10;;
52868;SDS011;39100;53.480;6.158;2024-03-02T07:27:16;0.32;;;0.10;;
52868;SDS011;39100;53.480;6.158;2024-03-02T07:29:42;2.20;;;0.10;;
52868;SDS011;39100;53.480;6.158;2024-03-02T07:32:08;0.28;;;0.10;;
52868;SDS011;39100;53.480;6.158;2024-03-02T07:34:35;0.00;;;0.00;;
52868;SDS011;39100;53.480;6.158;2024-03-02T07:37:01;0.52;;;0.13;;
52868;SDS011;39100;53.480;6.158;2024-03-02T07:39:26;0.28;;;0.08;;
52868;SDS011;39100;53.480;6.158;2024-03-02T07:41:52;0.40;;;0.10;;
52868;SDS011;39100;53.480;6.158;2024-03-02T07:44:18;0.35;;;0.13;;
52868;SDS011;39100;53.480;6.158;2024-03-02T07:46:47;0.35;;;0.10;;
52868;SDS011;39100;53.480;6.158;2024-03-02T07:49:16;0.15;;;0.10;;
52868;SDS011;39100;53.480;6.158;2024-03-02T07:51:43;0.15;;;0.13;;
52868;SDS011;39100;53.480;6.158;2024-03-02T07:54:09;0.20;;;0.10;;
52868;SDS011;39100;53.480;6.158;2024-03-02T07:56:34;1.17;;;0.10;;
52868;SDS011;39100;53.480;6.158;2024-03-02T07:59:01;0.20;;;0.00;;
52868;SDS011;39100;53.480;6.158;2024-03-02T08:01:27;0.30;;;0.10;;
52868;SDS011;39100;53.480;6.158;2024-03-02T08:03:57;0.45;;;0.10;;
52868;SDS011;39100;53.480;6.158;2024-03-02T08:06:28;0.13;;;0.10;;
52868;SDS011;39100;53.480;6.158;2024-03-02T08:08:54;0.10;;;0.05;;
52868;SDS011;39100;53.480;6.158;2024-03-02T08:11:20;1.25;;;0.00;;
52868;SDS011;39100;53.480;6.158;2024-03-02T08:13:46;0.10;;;0.10;;
52868;SDS011;39100;53.480;6.158;2024-03-02T08:16:12;0.90;;;0.13;;
52868;SDS011;39100;53.480;6.158;2024-03-02T08:18:39;0.10;;;0.10;;
52868;SDS011;39100;53.480;6.158;2024-03-02T08:21:04;0.45;;;0.15;;
52868;SDS011;39100;53.480;6.158;2024-03-02T08:23:30;0.28;;;0.10;;
52868;SDS011;39100;53.480;6.158;2024-03-02T08:25:57;0.75;;;0.10;;
52868;SDS011;39100;53.480;6.158;2024-03-02T08:28:22;0.95;;;0.20;;
52868;SDS011;39100;53.480;6.158;2024-03-02T08:30:48;0.90;;;0.20;;
52868;SDS011;39100;53.480;6.158;2024-03-02T08:33:14;0.25;;;0.10;;
52868;SDS011;39100;53.480;6.158;2024-03-02T08:35:39;0.15;;;0.00;;
52868;SDS011;39100;53.480;6.158;2024-03-02T08:38:05;0.45;;;0.10;;
52868;SDS011;39100;53.480;6.158;2024-03-02T08:40:30;0.50;;;0.10;;
52868;SDS011;39100;53.480;6.158;2024-03-02T08:42:56;0.30;;;0.10;;
52868;SDS011;39100;53.480;6.158;2024-03-02T08:45:22;0.30;;;0.10;;
52868;SDS011;39100;53.480;6.158;2024-03-02T08:47:48;0.77;;;0.00;;
52868;SDS011;39100;53.480;6.158;2024-03-02T08:50:13;0.10;;;0.08;;
52868;SDS011;39100;53.480;6.158;2024-03-02T08:52:39;1.75;;;0.30;;
52868;SDS011;39100;53.480;6.158;2024-03-02T08:55:05;1.30;;;0.20;;
52868;SDS011;39100;53.480;6.158;2024-03-02T08:57:32;0.30;;;0.10;;
52868;SDS011;39100;53.480;6.158;2024-03-02T08:59:58;0.75;;;0.00;;
52868;SDS011;39100;53.480;6.158;2024-03-02T09:02:24;1.33;;;0.10;;
52868;SDS011;39100;53.480;6.158;2024-03-02T09:04:49;0.65;;;0.10;;
52868;SDS011;39100;53.480;6.158;2024-03-02T09:07:15;1.60;;;0.13;;
52868;SDS011;39100;53.480;6.158;2024-03-02T09:09:41;0.52;;;0.30;;
52868;SDS011;39100;53.480;6.158;2024-03-02T09:12:06;0.55;;;0.47;;
52868;SDS011;39100;53.480;6.158;2024-03-02T09:14:32;1.95;;;0.32;;
52868;SDS011;39100;53.480;6.158;2024-03-02T09:16:59;0.88;;;0.20;;
52868;SDS011;39100;53.480;6.158;2024-03-02T09:19:25;0.47;;;0.00;;
52868;SDS011;39100;53.480;6.158;2024-03-02T09:21:50;0.10;;;0.10;;
52868;SDS011;39100;53.480;6.158;2024-03-02T09:24:16;0.20;;;0.20;;
52868;SDS011;39100;53.480;6.158;2024-03-02T09:26:42;0.75;;;0.10;;
52868;SDS011;39100;53.480;6.158;2024-03-02T09:29:07;0.20;;;0.15;;
52868;SDS011;39100;53.480;6.158;2024-03-02T09:31:33;0.50;;;0.10;;
52868;SDS011;39100;53.480;6.158;2024-03-02T09:34:03;0.40;;;0.10;;
52868;SDS011;39100;53.480;6.158;2024-03-02T09:36:29;0.52;;;0.10;;
52868;SDS011;39100;53.480;6.158;2024-03-02T09:38:55;1.75;;;0.20;;
52868;SDS011;39100;53.480;6.158;2024-03-02T09:41:20;0.40;;;0.20;;
52868;SDS011;39100;53.480;6.158;2024-03-02T09:43:46;0.25;;;0.20;;
52868;SDS011;39100;53.480;6.158;2024-03-02T09:46:12;2.80;;;0.20;;
52868;SDS011;39100;53.480;6.158;2024-03-02T09:48:37;0.47;;;0.47;;
52868;SDS011;39100;53.480;6.158;2024-03-02T09:51:04;0.65;;;0.13;;
52868;SDS011;39100;53.480;6.158;2024-03-02T09:53:31;0.28;;;0.22;;
52868;SDS011;39100;53.480;6.158;2024-03-02T09:55:58;0.40;;;0.20;;
52868;SDS011;39100;53.480;6.158;2024-03-02T09:58:25;0.68;;;0.22;;
52868;SDS011;39100;53.480;6.158;2024-03-02T10:00:51;0.17;;;0.10;;
52868;SDS011;39100;53.480;6.158;2024-03-02T10:03:17;3.03;;;0.43;;
52868;SDS011;39100;53.480;6.158;2024-03-02T10:05:44;0.30;;;0.10;;
52868;SDS011;39100;53.480;6.158;2024-03-02T10:08:09;0.60;;;0.10;;
52868;SDS011;39100;53.480;6.158;2024-03-02T10:10:39;1.15;;;0.20;;
52868;SDS011;39100;53.480;6.158;2024-03-02T10:13:06;1.15;;;0.45;;
52868;SDS011;39100;53.480;6.158;2024-03-02T10:15:32;0.63;;;0.10;;
52868;SDS011;39100;53.480;6.158;2024-03-02T10:17:58;2.40;;;0.32;;
52868;SDS011;39100;53.480;6.158;2024-03-02T10:20:27;1.35;;;0.20;;
52868;SDS011;39100;53.480;6.158;2024-03-02T10:22:54;0.40;;;0.10;;
52868;SDS011;39100;53.480;6.158;2024-03-02T10:27:59;0.57;;;0.10;;
52868;SDS011;39100;53.480;6.158;2024-03-02T10:30:28;1.45;;;0.25;;
52868;SDS011;39100;53.480;6.158;2024-03-02T10:32:54;0.43;;;0.10;;
52868;SDS011;39100;53.480;6.158;2024-03-02T10:35:21;1.20;;;0.22;;
52868;SDS011;39100;53.480;6.158;2024-03-02T10:37:49;0.88;;;0.45;;
52868;SDS011;39100;53.480;6.158;2024-03-02T10:40:15;0.30;;;0.08;;
52868;SDS011;39100;53.480;6.158;2024-03-02T10:42:41;1.50;;;0.22;;
52868;SDS011;39100;53.480;6.158;2024-03-02T10:45:08;1.38;;;0.28;;
52868;SDS011;39100;53.480;6.158;2024-03-02T10:47:38;2.67;;;0.15;;
52868;SDS011;39100;53.480;6.158;2024-03-02T10:50:04;1.08;;;0.22;;
52868;SDS011;39100;53.480;6.158;2024-03-02T10:52:39;0.45;;;0.10;;
52868;SDS011;39100;53.480;6.158;2024-03-02T10:55:08;1.48;;;0.10;;
52868;SDS011;39100;53.480;6.158;2024-03-02T10:57:51;0.10;;;0.00;;
52868;SDS011;39100;53.480;6.158;2024-03-02T11:00:18;2.15;;;0.10;;
52868;SDS011;39100;53.480;6.158;2024-03-02T11:02:50;0.27;;;0.27;;
52868;SDS011;39100;53.480;6.158;2024-03-02T11:05:22;0.75;;;0.10;;
52868;SDS011;39100;53.480;6.158;2024-03-02T11:07:53;0.90;;;0.10;;
52868;SDS011;39100;53.480;6.158;2024-03-02T11:10:25;0.75;;;0.00;;
52868;SDS011;39100;53.480;6.158;2024-03-02T11:12:53;1.75;;;0.00;;
52868;SDS011;39100;53.480;6.158;2024-03-02T11:15:22;0.63;;;0.10;;
52868;SDS011;39100;53.480;6.158;2024-03-02T11:17:50;0.93;;;0.30;;
52868;SDS011;39100;53.480;6.158;2024-03-02T11:20:17;0.40;;;0.30;;
52868;SDS011;39100;53.480;6.158;2024-03-02T11:22:44;1.55;;;0.10;;
52868;SDS011;39100;53.480;6.158;2024-03-02T11:25:27;0.55;;;0.08;;
52868;SDS011;39100;53.480;6.158;2024-03-02T11:32:56;1.48;;;0.15;;
52868;SDS011;39100;53.480;6.158;2024-03-02T11:35:26;0.30;;;0.00;;
52868;SDS011;39100;53.480;6.158;2024-03-02T11:37:53;1.17;;;0.30;;
52868;SDS011;39100;53.480;6.158;2024-03-02T11:40:22;1.08;;;0.28;;
52868;SDS011;39100;53.480;6.158;2024-03-02T11:42:49;0.20;;;0.10;;
52868;SDS011;39100;53.480;6.158;2024-03-02T11:45:24;0.55;;;0.10;;
52868;SDS011;39100;53.480;6.158;2024-03-02T11:47:54;1.10;;;0.10;;
52868;SDS011;39100;53.480;6.158;2024-03-02T11:50:30;0.68;;;0.10;;
52868;SDS011;39100;53.480;6.158;2024-03-02T11:53:00;1.08;;;0.20;;
52868;SDS011;39100;53.480;6.158;2024-03-02T11:55:26;0.70;;;0.10;;
52868;SDS011;39100;53.480;6.158;2024-03-02T11:57:54;0.63;;;0.20;;
52868;SDS011;39100;53.480;6.158;2024-03-02T12:00:19;0.35;;;0.10;;
52868;SDS011;39100;53.480;6.158;2024-03-02T12:02:46;1.17;;;0.20;;
52868;SDS011;39100;53.480;6.158;2024-03-02T12:05:28;0.47;;;0.05;;
52868;SDS011;39100;53.480;6.158;2024-03-02T12:07:56;0.90;;;0.20;;
52868;SDS011;39100;53.480;6.158;2024-03-02T12:10:22;1.85;;;0.40;;
52868;SDS011;39100;53.480;6.158;2024-03-02T12:12:54;0.40;;;0.00;;
52868;SDS011;39100;53.480;6.158;2024-03-02T12:15:27;1.30;;;0.20;;
52868;SDS011;39100;53.480;6.158;2024-03-02T12:17:58;1.58;;;0.30;;
52868;SDS011;39100;53.480;6.158;2024-03-02T12:20:26;2.97;;;0.30;;
52868;SDS011;39100;53.480;6.158;2024-03-02T12:22:54;1.02;;;0.10;;
52868;SDS011;39100;53.480;6.158;2024-03-02T12:25:21;0.30;;;0.15;;
52868;SDS011;39100;53.480;6.158;2024-03-02T12:27:51;0.10;;;0.10;;
52868;SDS011;39100;53.480;6.158;2024-03-02T12:30:23;0.55;;;0.10;;
52868;SDS011;39100;53.480;6.158;2024-03-02T12:32:49;0.57;;;0.10;;
52868;SDS011;39100;53.480;6.158;2024-03-02T12:35:15;1.02;;;0.10;;
52868;SDS011;39100;53.480;6.158;2024-03-02T12:37:51;0.17;;;0.00;;
52868;SDS011;39100;53.480;6.158;2024-03-02T12:40:18;0.10;;;0.00;;
52868;SDS011;39100;53.480;6.158;2024-03-02T12:42:45;0.85;;;0.10;;
52868;SDS011;39100;53.480;6.158;2024-03-02T12:45:12;1.02;;;0.30;;
52868;SDS011;39100;53.480;6.158;2024-03-02T12:47:41;2.28;;;1.15;;
52868;SDS011;39100;53.480;6.158;2024-03-02T12:50:07;1.23;;;0.20;;
52868;SDS011;39100;53.480;6.158;2024-03-02T12:52:36;1.38;;;0.10;;
52868;SDS011;39100;53.480;6.158;2024-03-02T12:55:02;0.77;;;0.20;;
52868;SDS011;39100;53.480;6.158;2024-03-02T12:57:30;0.63;;;0.17;;
52868;SDS011;39100;53.480;6.158;2024-03-02T12:59:58;1.45;;;0.15;;
52868;SDS011;39100;53.480;6.158;2024-03-02T13:02:34;1.98;;;0.73;;
52868;SDS011;39100;53.480;6.158;2024-03-02T13:05:00;1.58;;;0.20;;
52868;SDS011;39100;53.480;6.158;2024-03-02T13:07:25;0.65;;;0.10;;
52868;SDS011;39100;53.480;6.158;2024-03-02T13:09:51;1.58;;;0.20;;
52868;SDS011;39100;53.480;6.158;2024-03-02T13:12:20;1.15;;;0.40;;
52868;SDS011;39100;53.480;6.158;2024-03-02T13:14:49;0.50;;;0.40;;
52868;SDS011;39100;53.480;6.158;2024-03-02T13:17:17;0.30;;;0.30;;
52868;SDS011;39100;53.480;6.158;2024-03-02T13:19:53;1.55;;;0.30;;
52868;SDS011;39100;53.480;6.158;2024-03-02T13:22:22;0.40;;;0.20;;
52868;SDS011;39100;53.480;6.158;2024-03-02T13:24:48;0.68;;;0.20;;
52868;SDS011;39100;53.480;6.158;2024-03-02T13:27:15;0.50;;;0.30;;
52868;SDS011;39100;53.480;6.158;2024-03-02T13:29:41;1.40;;;0.60;;
52868;SDS011;39100;53.480;6.158;2024-03-02T13:32:07;1.02;;;0.45;;
52868;SDS011;39100;53.480;6.158;2024-03-02T13:34:34;1.90;;;0.20;;
52868;SDS011;39100;53.480;6.158;2024-03-02T13:37:01;1.73;;;0.73;;
52868;SDS011;39100;53.480;6.158;2024-03-02T13:39:27;1.05;;;0.10;;
52868;SDS011;39100;53.480;6.158;2024-03-02T13:41:55;0.30;;;0.10;;
52868;SDS011;39100;53.480;6.158;2024-03-02T13:44:28;1.55;;;0.20;;
52868;SDS011;39100;53.480;6.158;2024-03-02T13:46:54;0.88;;;0.10;;
52868;SDS011;39100;53.480;6.158;2024-03-02T13:49:19;0.38;;;0.00;;
52868;SDS011;39100;53.480;6.158;2024-03-02T13:51:45;1.10;;;0.10;;
52868;SDS011;39100;53.480;6.158;2024-03-02T13:54:10;0.20;;;0.08;;
52868;SDS011;39100;53.480;6.158;2024-03-02T13:56:36;1.55;;;0.13;;
52868;SDS011;39100;53.480;6.158;2024-03-02T13:59:04;0.40;;;0.20;;
52868;SDS011;39100;53.480;6.158;2024-03-02T14:01:30;0.20;;;0.10;;
52868;SDS011;39100;53.480;6.158;2024-03-02T14:03:57;0.20;;;0.00;;
52868;SDS011;39100;53.480;6.158;2024-03-02T14:06:23;0.52;;;0.20;;
52868;SDS011;39100;53.480;6.158;2024-03-02T14:08:51;0.50;;;0.15;;
52868;SDS011;39100;53.480;6.158;2024-03-02T14:11:16;0.20;;;0.05;;
52868;SDS011;39100;53.480;6.158;2024-03-02T14:13:42;0.30;;;0.13;;
52868;SDS011;39100;53.480;6.158;2024-03-02T14:16:10;0.68;;;0.50;;
52868;SDS011;39100;53.480;6.158;2024-03-02T14:18:36;0.95;;;0.20;;
52868;SDS011;39100;53.480;6.158;2024-03-02T14:21:01;1.25;;;0.13;;
52868;SDS011;39100;53.480;6.158;2024-03-02T14:23:28;1.08;;;0.30;;
52868;SDS011;39100;53.480;6.158;2024-03-02T14:25:54;0.68;;;0.10;;
52868;SDS011;39100;53.480;6.158;2024-03-02T14:28:20;0.88;;;0.30;;
52868;SDS011;39100;53.480;6.158;2024-03-02T14:30:46;1.27;;;0.25;;
52868;SDS011;39100;53.480;6.158;2024-03-02T14:33:11;1.85;;;0.30;;
52868;SDS011;39100;53.480;6.158;2024-03-02T14:35:38;0.47;;;0.25;;
52868;SDS011;39100;53.480;6.158;2024-03-02T14:38:04;2.65;;;0.10;;
52868;SDS011;39100;53.480;6.158;2024-03-02T14:40:29;0.47;;;0.15;;
52868;SDS011;39100;53.480;6.158;2024-03-02T14:42:55;0.55;;;0.20;;
52868;SDS011;39100;53.480;6.158;2024-03-02T14:45:21;2.05;;;0.50;;
52868;SDS011;39100;53.480;6.158;2024-03-02T14:47:47;0.50;;;0.30;;
52868;SDS011;39100;53.480;6.158;2024-03-02T14:50:12;0.20;;;0.20;;
52868;SDS011;39100;53.480;6.158;2024-03-02T14:52:40;0.47;;;0.30;;
52868;SDS011;39100;53.480;6.158;2024-03-02T14:55:06;1.23;;;0.60;;
52868;SDS011;39100;53.480;6.158;2024-03-02T14:57:32;0.70;;;0.60;;
52868;SDS011;39100;53.480;6.158;2024-03-02T14:59:58;1.10;;;0.73;;